createdAt,value
2022-09-23T00:00:25.790Z,87.92
2022-09-23T00:01:25.846Z,88.74
2022-09-23T00:02:25.811Z,88.53
2022-09-23T00:03:25.747Z,88.53
2022-09-23T00:04:25.750Z,88.39
2022-09-23T00:05:25.742Z,88.95
2022-09-23T00:06:25.737Z,88.43
2022-09-23T00:07:25.739Z,89.46
2022-09-23T00:08:25.726Z,89.56
2022-09-23T00:09:25.706Z,90.08
2022-09-23T00:10:25.710Z,90.19
2022-09-23T00:11:25.699Z,89.46
2022-09-23T00:12:25.706Z,90.28
2022-09-23T00:13:25.689Z,90.55
2022-09-23T00:14:25.681Z,89.98
2022-09-23T00:15:26.669Z,89.87
2022-09-23T00:16:25.711Z,90.28
2022-09-23T00:17:25.664Z,89.87
2022-09-23T00:18:25.656Z,91.52
2022-09-23T00:19:25.654Z,91.32
2022-09-23T00:20:25.641Z,91.28
2022-09-23T00:21:25.633Z,90.97
2022-09-23T00:22:25.638Z,89.98
2022-09-23T00:23:25.629Z,89.94
2022-09-23T00:24:25.663Z,90.28
2022-09-23T00:25:25.616Z,90.04
2022-09-23T00:26:25.611Z,89.94
2022-09-23T00:27:25.594Z,90.04
2022-09-23T00:28:25.582Z,89.42
2022-09-23T00:29:25.604Z,89.22
2022-09-23T00:30:25.615Z,88.53
2022-09-23T00:31:25.575Z,89.15
2022-09-23T00:32:25.574Z,89.15
2022-09-23T00:33:25.563Z,89.46
2022-09-23T00:34:25.567Z,88.95
2022-09-23T00:35:25.554Z,89.15
2022-09-23T00:36:25.538Z,88.84
2022-09-23T00:37:25.534Z,89.05
2022-09-23T00:38:25.539Z,89.05
2022-09-23T00:39:25.567Z,88.95
2022-09-23T00:40:25.582Z,88.95
2022-09-23T00:41:25.522Z,89.05
2022-09-23T00:42:25.514Z,88.43
2022-09-23T00:43:25.503Z,88.53
2022-09-23T00:44:25.513Z,89.56
2022-09-23T00:45:25.490Z,90.08
2022-09-23T00:46:25.566Z,89.87
2022-09-23T00:47:25.471Z,90.08
2022-09-23T00:48:25.474Z,90.02
2022-09-23T00:49:25.459Z,89.25
2022-09-23T00:50:25.462Z,89.36
2022-09-23T00:51:25.483Z,88.84
2022-09-23T00:52:25.459Z,88.32
2022-09-23T00:53:25.434Z,87.44
2022-09-23T00:54:25.438Z,87.95
2022-09-23T00:55:25.440Z,87.13
2022-09-23T00:56:25.978Z,87.54
2022-09-23T00:57:25.430Z,87.34
2022-09-23T00:58:25.408Z,88.10
2022-09-23T00:59:25.398Z,87.79
2022-09-23T01:00:25.398Z,88.10
2022-09-23T01:01:25.422Z,88.51
2022-09-23T01:02:25.499Z,88.20
2022-09-23T01:03:25.381Z,89.03
2022-09-23T01:04:25.368Z,89.03
2022-09-23T01:05:25.358Z,88.31
2022-09-23T01:06:25.357Z,89.13
2022-09-23T01:07:25.360Z,89.34
2022-09-23T01:08:25.346Z,89.23
2022-09-23T01:09:25.356Z,89.07
2022-09-23T01:10:25.342Z,89.13
2022-09-23T01:11:25.324Z,89.28
2022-09-23T01:12:25.314Z,88.24
2022-09-23T01:13:25.318Z,88.14
2022-09-23T01:14:25.314Z,87.83
2022-09-23T01:15:25.308Z,87.31
2022-09-23T01:16:25.360Z,87.83
2022-09-23T01:17:25.290Z,87.21
2022-09-23T01:18:25.289Z,87.52
2022-09-23T01:19:25.302Z,88.45
2022-09-23T01:20:25.279Z,88.04
2022-09-23T01:21:25.274Z,88.86
2022-09-23T01:22:25.250Z,88.34
2022-09-23T01:23:25.246Z,88.39
2022-09-23T01:24:25.261Z,89.01
2022-09-23T01:25:25.239Z,89.32
2022-09-23T01:26:25.227Z,90.04
2022-09-23T01:27:25.233Z,89.59
2022-09-23T01:28:25.222Z,89.32
2022-09-23T01:29:25.211Z,90.04
2022-09-23T01:30:25.448Z,89.83
2022-09-23T01:31:25.205Z,90.56
2022-09-23T01:32:25.208Z,91.07
2022-09-23T01:33:25.190Z,91.69
2022-09-23T01:34:25.186Z,91.69
2022-09-23T01:35:25.185Z,91.38
2022-09-23T01:36:25.175Z,91.49
2022-09-23T01:37:25.162Z,91.90
2022-09-23T01:38:25.155Z,92.52
2022-09-23T01:39:25.145Z,92.72
2022-09-23T01:40:25.240Z,93.10
2022-09-23T01:41:25.142Z,92.89
2022-09-23T01:42:25.127Z,92.79
2022-09-23T01:43:25.115Z,93.20
2022-09-23T01:44:25.129Z,93.30
2022-09-23T01:45:25.130Z,92.99
2022-09-23T01:46:25.110Z,93.62
2022-09-23T01:47:25.098Z,93.72
2022-09-23T01:48:25.133Z,93.72
2022-09-23T01:49:25.082Z,93.51
2022-09-23T01:50:25.090Z,92.48
2022-09-23T01:51:25.086Z,92.79
2022-09-23T01:52:25.062Z,92.33
2022-09-23T01:53:25.070Z,92.48
2022-09-23T01:54:25.054Z,92.27
2022-09-23T01:55:25.070Z,91.82
2022-09-23T01:56:25.173Z,92.07
2022-09-23T01:57:25.036Z,91.71
2022-09-23T01:58:25.026Z,92.48
2022-09-23T01:59:25.026Z,92.89
2022-09-23T02:00:25.018Z,92.33
2022-09-23T02:01:25.113Z,93.88
2022-09-23T02:02:25.054Z,93.98
2022-09-23T02:03:24.999Z,94.09
2022-09-23T02:04:24.986Z,94.03
2022-09-23T02:05:24.982Z,93.26
2022-09-23T02:06:24.989Z,93.30
2022-09-23T02:07:24.974Z,92.44
2022-09-23T02:08:24.968Z,92.44
2022-09-23T02:09:24.988Z,93.51
2022-09-23T02:10:24.954Z,93.68
2022-09-23T02:11:24.991Z,93.68
2022-09-23T02:12:24.945Z,93.88
2022-09-23T02:13:24.941Z,92.44
2022-09-23T02:14:24.921Z,91.92
2022-09-23T02:15:24.924Z,92.07
2022-09-23T02:16:24.976Z,91.75
2022-09-23T02:17:24.906Z,90.72
2022-09-23T02:18:24.901Z,90.31
2022-09-23T02:19:24.898Z,90.41
2022-09-23T02:20:24.886Z,90.00
2022-09-23T02:21:24.906Z,90.04
2022-09-23T02:22:24.881Z,89.94
2022-09-23T02:23:24.872Z,89.94
2022-09-23T02:24:24.882Z,90.25
2022-09-23T02:25:24.854Z,89.94
2022-09-23T02:26:24.842Z,90.56
2022-09-23T02:27:24.854Z,90.45
2022-09-23T02:28:24.842Z,90.25
2022-09-23T02:29:24.829Z,90.56
2022-09-23T02:30:24.827Z,89.73
2022-09-23T02:31:24.869Z,90.14
2022-09-23T02:32:24.823Z,89.94
2022-09-23T02:33:24.805Z,89.62
2022-09-23T02:34:24.798Z,89.62
2022-09-23T02:35:24.793Z,89.62
2022-09-23T02:36:24.798Z,89.94
2022-09-23T02:37:24.778Z,89.73
2022-09-23T02:38:24.780Z,89.32
2022-09-23T02:39:24.769Z,89.52
2022-09-23T02:40:24.788Z,89.56
2022-09-23T02:41:24.779Z,89.52
2022-09-23T02:42:24.745Z,89.67
2022-09-23T02:43:24.741Z,89.36
2022-09-23T02:44:24.737Z,89.67
2022-09-23T02:45:24.721Z,89.25
2022-09-23T02:46:24.856Z,89.46
2022-09-23T02:47:24.726Z,89.67
2022-09-23T02:48:24.710Z,89.67
2022-09-23T02:49:24.706Z,89.71
2022-09-23T02:50:24.684Z,89.81
2022-09-23T02:51:24.702Z,89.71
2022-09-23T02:52:24.701Z,89.71
2022-09-23T02:53:24.682Z,89.56
2022-09-23T02:54:24.683Z,90.33
2022-09-23T02:55:24.673Z,89.81
2022-09-23T02:56:24.666Z,89.92
2022-09-23T02:57:24.659Z,89.81
2022-09-23T02:58:24.650Z,89.71
2022-09-23T02:59:24.637Z,90.12
2022-09-23T03:00:24.629Z,89.81
2022-09-23T03:01:24.690Z,90.02
2022-09-23T03:02:24.676Z,89.61
2022-09-23T03:03:24.642Z,89.61
2022-09-23T03:04:25.605Z,89.40
2022-09-23T03:05:24.605Z,89.61
2022-09-23T03:06:24.593Z,88.67
2022-09-23T03:07:24.599Z,88.71
2022-09-23T03:08:24.589Z,89.44
2022-09-23T03:09:24.574Z,89.81
2022-09-23T03:10:24.571Z,90.47
2022-09-23T03:11:24.567Z,90.16
2022-09-23T03:12:24.554Z,89.44
2022-09-23T03:13:28.712Z,89.65
2022-09-23T03:14:25.557Z,89.75
2022-09-23T03:15:24.522Z,89.54
2022-09-23T03:16:24.603Z,89.86
2022-09-23T03:17:24.525Z,90.10
2022-09-23T03:18:24.513Z,90.00
2022-09-23T03:19:24.525Z,89.65
2022-09-23T03:20:24.514Z,89.89
2022-09-23T03:21:24.503Z,90.20
2022-09-23T03:22:24.495Z,89.69
2022-09-23T03:23:24.487Z,90.31
2022-09-23T03:24:24.497Z,90.20
2022-09-23T03:25:24.473Z,90.83
2022-09-23T03:26:24.469Z,90.62
2022-09-23T03:27:24.457Z,90.83
2022-09-23T03:28:24.450Z,91.03
2022-09-23T03:29:24.462Z,91.55
2022-09-23T03:30:24.440Z,91.66
2022-09-23T03:31:24.441Z,91.86
2022-09-23T03:32:24.434Z,92.18
2022-09-23T03:33:28.414Z,92.49
2022-09-23T03:34:25.419Z,92.34
2022-09-23T03:35:24.422Z,91.97
2022-09-23T03:36:24.403Z,92.18
2022-09-23T03:37:24.391Z,92.28
2022-09-23T03:38:24.377Z,92.18
2022-09-23T03:39:24.382Z,91.55
2022-09-23T03:40:24.441Z,91.76
2022-09-23T03:41:24.388Z,91.66
2022-09-23T03:42:24.370Z,91.66
2022-09-23T03:43:24.340Z,91.76
2022-09-23T03:44:24.342Z,91.86
2022-09-23T03:45:24.377Z,91.35
2022-09-23T03:46:24.334Z,91.66
2022-09-23T03:47:24.322Z,92.18
2022-09-23T03:48:24.325Z,91.55
2022-09-23T03:49:24.315Z,91.55
2022-09-23T03:50:24.305Z,91.55
2022-09-23T03:51:24.302Z,91.76
2022-09-23T03:52:24.309Z,91.76
2022-09-23T03:53:24.281Z,91.86
2022-09-23T03:54:24.285Z,91.86
2022-09-23T03:55:24.273Z,91.76
2022-09-23T03:56:24.266Z,90.97
2022-09-23T03:57:24.286Z,90.97
2022-09-23T03:58:24.257Z,90.20
2022-09-23T03:59:24.245Z,90.14
2022-09-23T04:00:24.245Z,90.87
2022-09-23T04:01:24.279Z,90.87
2022-09-23T04:02:24.306Z,90.66
2022-09-23T04:03:24.229Z,90.83
2022-09-23T04:04:24.213Z,90.52
2022-09-23T04:05:24.213Z,90.14
2022-09-23T04:06:24.209Z,90.25
2022-09-23T04:07:24.198Z,90.56
2022-09-23T04:08:24.180Z,90.25
2022-09-23T04:09:24.185Z,90.04
2022-09-23T04:10:24.189Z,91.28
2022-09-23T04:11:24.169Z,91.70
2022-09-23T04:12:24.161Z,91.91
2022-09-23T04:13:24.157Z,91.91
2022-09-23T04:14:24.147Z,91.80
2022-09-23T04:15:24.153Z,91.80
2022-09-23T04:16:24.203Z,91.80
2022-09-23T04:17:24.124Z,91.70
2022-09-23T04:18:24.121Z,91.91
2022-09-23T04:19:24.117Z,92.01
2022-09-23T04:20:24.130Z,91.91
2022-09-23T04:21:24.105Z,91.18
2022-09-23T04:22:24.087Z,91.80
2022-09-23T04:23:24.089Z,91.86
2022-09-23T04:24:24.093Z,92.01
2022-09-23T04:25:24.101Z,91.91
2022-09-23T04:26:24.071Z,91.60
2022-09-23T04:27:24.077Z,91.80
2022-09-23T04:28:24.065Z,91.80
2022-09-23T04:29:24.052Z,91.80
2022-09-23T04:30:24.041Z,91.76
2022-09-23T04:31:24.164Z,91.60
2022-09-23T04:32:24.033Z,91.08
2022-09-23T04:33:24.021Z,90.66
2022-09-23T04:34:24.018Z,91.18
2022-09-23T04:35:24.017Z,90.77
2022-09-23T04:36:24.012Z,90.77
2022-09-23T04:37:24.004Z,92.01
2022-09-23T04:38:23.998Z,91.70
2022-09-23T04:39:23.988Z,91.49
2022-09-23T04:40:24.004Z,91.49
2022-09-23T04:41:23.994Z,92.11
2022-09-23T04:42:23.979Z,92.22
2022-09-23T04:43:23.968Z,91.91
2022-09-23T04:44:23.965Z,91.60
2022-09-23T04:45:23.957Z,91.60
2022-09-23T04:46:23.986Z,91.91
2022-09-23T04:47:23.941Z,91.43
2022-09-23T04:48:23.926Z,91.91
2022-09-23T04:49:23.933Z,91.49
2022-09-23T04:50:23.920Z,91.60
2022-09-23T04:51:23.921Z,91.39
2022-09-23T04:52:23.919Z,91.70
2022-09-23T04:53:23.900Z,91.64
2022-09-23T04:54:23.894Z,91.70
2022-09-23T04:55:23.877Z,92.01
2022-09-23T04:56:23.883Z,92.22
2022-09-23T04:57:23.897Z,91.91
2022-09-23T04:58:24.870Z,91.80
2022-09-23T04:59:23.860Z,92.01
2022-09-23T05:00:23.855Z,92.43
2022-09-23T05:01:23.902Z,91.91
2022-09-23T05:02:23.886Z,92.32
2022-09-23T05:03:23.836Z,92.01
2022-09-23T05:04:23.829Z,92.01
2022-09-23T05:05:23.817Z,92.53
2022-09-23T05:06:23.818Z,92.74
2022-09-23T05:07:23.825Z,92.32
2022-09-23T05:08:23.797Z,92.43
2022-09-23T05:09:23.795Z,92.63
2022-09-23T05:10:23.789Z,92.38
2022-09-23T05:11:23.784Z,92.11
2022-09-23T05:12:23.788Z,92.11
2022-09-23T05:13:23.765Z,92.22
2022-09-23T05:14:23.765Z,91.97
2022-09-23T05:15:23.757Z,91.80
2022-09-23T05:16:23.815Z,91.80
2022-09-23T05:17:23.744Z,91.86
2022-09-23T05:18:23.785Z,91.66
2022-09-23T05:19:23.728Z,91.86
2022-09-23T05:20:23.732Z,91.03
2022-09-23T05:21:23.717Z,90.62
2022-09-23T05:22:23.710Z,90.31
2022-09-23T05:23:23.720Z,90.25
2022-09-23T05:24:23.700Z,90.14
2022-09-23T05:25:23.690Z,90.10
2022-09-23T05:26:23.686Z,90.72
2022-09-23T05:27:23.676Z,90.83
2022-09-23T05:28:23.673Z,90.41
2022-09-23T05:29:23.681Z,90.31
2022-09-23T05:30:23.678Z,90.10
2022-09-23T05:31:23.703Z,90.52
2022-09-23T05:32:23.648Z,89.69
2022-09-23T05:33:23.629Z,89.96
2022-09-23T05:34:23.645Z,89.69
2022-09-23T05:35:23.619Z,89.75
2022-09-23T05:36:23.616Z,89.58
2022-09-23T05:37:23.608Z,89.86
2022-09-23T05:38:23.609Z,88.71
2022-09-23T05:39:23.603Z,89.13
2022-09-23T05:40:23.638Z,88.88
2022-09-23T05:41:23.584Z,88.98
2022-09-23T05:42:23.577Z,89.19
2022-09-23T05:43:23.570Z,88.98
2022-09-23T05:44:23.580Z,89.19
2022-09-23T05:45:24.311Z,89.29
2022-09-23T05:46:23.655Z,89.29
2022-09-23T05:47:23.549Z,89.19
2022-09-23T05:48:23.538Z,89.40
2022-09-23T05:49:37.646Z,89.36
2022-09-23T05:50:24.532Z,89.36
2022-09-23T05:51:27.517Z,88.94
2022-09-23T05:52:24.528Z,89.25
2022-09-23T05:53:23.512Z,89.36
2022-09-23T05:54:23.524Z,88.80
2022-09-23T05:55:23.501Z,89.11
2022-09-23T05:56:23.496Z,89.22
2022-09-23T05:57:23.487Z,89.11
2022-09-23T05:58:23.472Z,89.11
2022-09-23T05:59:23.484Z,89.11
2022-09-23T06:00:23.473Z,89.28
2022-09-23T06:01:23.464Z,89.17
2022-09-23T06:02:23.570Z,89.17
2022-09-23T06:03:23.513Z,89.28
2022-09-23T06:04:23.458Z,89.13
2022-09-23T06:05:23.442Z,89.03
2022-09-23T06:06:23.432Z,88.92
2022-09-23T06:07:23.460Z,89.34
2022-09-23T06:08:23.430Z,88.37
2022-09-23T06:09:23.407Z,88.12
2022-09-23T06:10:23.412Z,87.81
2022-09-23T06:11:23.406Z,87.56
2022-09-23T06:12:23.399Z,87.71
2022-09-23T06:13:23.396Z,86.74
2022-09-23T06:14:23.376Z,87.98
2022-09-23T06:15:23.391Z,87.42
2022-09-23T06:16:23.430Z,86.18
2022-09-23T06:17:23.505Z,86.66
2022-09-23T06:18:23.356Z,87.38
2022-09-23T06:19:23.348Z,86.93
2022-09-23T06:20:23.348Z,86.52
2022-09-23T06:21:23.320Z,85.49
2022-09-23T06:22:23.341Z,85.59
2022-09-23T06:23:26.569Z,86.82
2022-09-23T06:24:30.197Z,87.03
2022-09-23T06:25:24.317Z,86.61
2022-09-23T06:26:23.294Z,86.82
2022-09-23T06:27:23.289Z,86.87
2022-09-23T06:28:23.284Z,88.10
2022-09-23T06:29:23.292Z,88.62
2022-09-23T06:30:23.284Z,88.99
2022-09-23T06:31:23.312Z,89.19
2022-09-23T06:32:23.256Z,89.81
2022-09-23T06:33:34.329Z,89.87
2022-09-23T06:34:25.252Z,88.74
2022-09-23T06:35:27.474Z,89.01
2022-09-23T06:36:37.606Z,88.80
2022-09-23T06:37:25.219Z,87.94
2022-09-23T06:38:23.220Z,87.42
2022-09-23T06:39:23.209Z,87.28
2022-09-23T06:40:23.224Z,86.83
2022-09-23T06:41:23.204Z,87.13
2022-09-23T06:42:23.179Z,86.83
2022-09-23T06:43:23.176Z,86.58
2022-09-23T06:44:23.168Z,85.82
2022-09-23T06:45:23.152Z,85.99
2022-09-23T06:46:23.237Z,84.82
2022-09-23T06:47:23.158Z,84.78
2022-09-23T06:48:23.146Z,83.14
2022-09-23T06:49:23.141Z,82.28
2022-09-23T06:50:23.136Z,81.29
2022-09-23T06:51:23.121Z,80.83
2022-09-23T06:52:23.156Z,79.57
2022-09-23T06:53:23.118Z,78.92
2022-09-23T06:54:23.108Z,77.86
2022-09-23T06:55:23.100Z,76.98
2022-09-23T06:56:23.095Z,76.74
2022-09-23T06:57:23.119Z,77.56
2022-09-23T06:58:23.067Z,76.64
2022-09-23T06:59:23.062Z,76.78
2022-09-23T07:00:23.064Z,77.53
2022-09-23T07:01:23.095Z,77.42
2022-09-23T07:02:23.186Z,77.76
2022-09-23T07:03:23.048Z,78.52
2022-09-23T07:04:26.129Z,78.83
2022-09-23T07:05:24.025Z,79.03
2022-09-23T07:06:23.019Z,80.05
2022-09-23T07:07:23.004Z,79.61
2022-09-23T07:08:23.027Z,78.52
2022-09-23T07:09:23.005Z,79.27
2022-09-23T07:10:22.987Z,80.05
2022-09-23T07:11:22.980Z,79.34
2022-09-23T07:12:23.007Z,79.54
2022-09-23T07:13:22.959Z,79.82
2022-09-23T07:14:22.964Z,78.45
2022-09-23T07:15:22.960Z,78.17
2022-09-23T07:16:22.994Z,78.17
2022-09-23T07:17:22.979Z,76.77
2022-09-23T07:18:22.944Z,77.11
2022-09-23T07:19:22.917Z,77.37
2022-09-23T07:20:23.966Z,76.69
2022-09-23T07:21:22.928Z,73.57
2022-09-23T07:22:22.917Z,73.43
2022-09-23T07:23:22.916Z,73.22
2022-09-23T07:24:22.900Z,72.34
2022-09-23T07:25:22.896Z,70.32
2022-09-23T07:26:22.926Z,70.15
2022-09-23T07:27:22.884Z,65.40
2022-09-23T07:28:22.957Z,66.35
2022-09-23T07:29:22.880Z,63.46
2022-09-23T07:30:25.349Z,63.73
2022-09-23T07:31:35.999Z,63.17
2022-09-23T07:32:24.953Z,61.13
2022-09-23T07:33:31.804Z,60.02
2022-09-23T07:34:24.845Z,58.48
2022-09-23T07:35:22.833Z,58.25
2022-09-23T07:36:22.825Z,58.15
2022-09-23T07:37:22.829Z,58.22
2022-09-23T07:38:22.957Z,56.89
2022-09-23T07:39:22.800Z,57.26
2022-09-23T07:40:22.833Z,54.90
2022-09-23T07:41:22.783Z,55.55
2022-09-23T07:42:22.792Z,54.12
2022-09-23T07:43:22.795Z,52.47
2022-09-23T07:44:22.787Z,50.94
2022-09-23T07:45:22.763Z,50.12
2022-09-23T07:46:22.799Z,49.49
2022-09-23T07:47:22.748Z,50.17
2022-09-23T07:48:22.751Z,48.75
2022-09-23T07:49:22.756Z,47.30
2022-09-23T07:50:22.802Z,48.28
2022-09-23T07:51:22.730Z,44.65
2022-09-23T07:52:22.724Z,47.31
2022-09-23T07:53:22.717Z,46.51
2022-09-23T07:54:22.720Z,44.15
2022-09-23T07:55:22.705Z,46.54
2022-09-23T07:56:22.696Z,45.54
2022-09-23T07:57:22.683Z,42.95
2022-09-23T07:58:22.687Z,43.57
2022-09-23T07:59:22.680Z,44.41
2022-09-23T08:00:22.809Z,46.58
2022-09-23T08:01:22.785Z,45.81
2022-09-23T08:02:22.759Z,44.63
2022-09-23T08:03:22.664Z,45.61
2022-09-23T08:04:22.652Z,46.19
2022-09-23T08:05:22.642Z,45.24
2022-09-23T08:06:22.643Z,44.90
2022-09-23T08:07:23.628Z,43.08
2022-09-23T08:08:22.616Z,43.76
2022-09-23T08:09:22.633Z,44.02
2022-09-23T08:10:22.721Z,41.60
2022-09-23T08:11:22.599Z,39.09
2022-09-23T08:12:22.584Z,40.64
2022-09-23T08:13:22.591Z,40.41
2022-09-23T08:14:22.587Z,37.41
2022-09-23T08:15:22.579Z,36.61
2022-09-23T08:16:22.601Z,38.09
2022-09-23T08:17:22.563Z,36.88
2022-09-23T08:18:22.556Z,36.49
2022-09-23T08:19:22.559Z,36.01
2022-09-23T08:20:22.589Z,36.72
2022-09-23T08:21:22.537Z,35.44
2022-09-23T08:22:22.535Z,36.86
2022-09-23T08:23:22.526Z,37.70
2022-09-23T08:24:22.538Z,39.01
2022-09-23T08:25:22.812Z,37.62
2022-09-23T08:26:23.504Z,38.40
2022-09-23T08:27:22.508Z,38.17
2022-09-23T08:28:22.493Z,38.46
2022-09-23T08:29:22.491Z,37.75
2022-09-23T08:30:22.515Z,38.31
2022-09-23T08:31:22.542Z,36.31
2022-09-23T08:32:22.478Z,36.31
2022-09-23T08:33:23.622Z,35.49
2022-09-23T08:34:23.457Z,34.79
2022-09-23T08:35:22.456Z,35.66
2022-09-23T08:36:22.479Z,34.84
2022-09-23T08:37:22.435Z,34.46
2022-09-23T08:38:22.435Z,33.69
2022-09-23T08:39:22.427Z,34.10
2022-09-23T08:40:22.447Z,34.43
2022-09-23T08:41:22.418Z,37.41
2022-09-23T08:42:22.407Z,36.98
2022-09-23T08:43:22.411Z,34.97
2022-09-23T08:44:22.390Z,34.27
2022-09-23T08:45:22.387Z,34.38
2022-09-23T08:46:22.409Z,35.27
2022-09-23T08:47:22.374Z,35.19
2022-09-23T08:48:22.380Z,35.05
2022-09-23T08:49:22.367Z,33.89
2022-09-23T08:50:22.354Z,34.71
2022-09-23T08:51:22.348Z,35.40
2022-09-23T08:52:22.320Z,34.30
2022-09-23T08:53:22.340Z,34.61
2022-09-23T08:54:22.344Z,35.30
2022-09-23T08:55:22.324Z,35.21
2022-09-23T08:56:22.316Z,36.01
2022-09-23T08:57:22.307Z,36.39
2022-09-23T08:58:25.267Z,34.61
2022-09-23T08:59:23.308Z,35.89
2022-09-23T09:00:22.280Z,35.38
2022-09-23T09:01:22.319Z,33.87
2022-09-23T09:02:22.299Z,33.79
2022-09-23T09:03:22.284Z,35.45
2022-09-23T09:04:22.268Z,35.45
2022-09-23T09:05:22.258Z,33.39
2022-09-23T09:06:22.255Z,35.27
2022-09-23T09:07:36.189Z,34.36
2022-09-23T09:08:24.247Z,34.46
2022-09-23T09:09:22.252Z,33.18
2022-09-23T09:10:22.221Z,34.08
2022-09-23T09:11:22.224Z,34.34
2022-09-23T09:12:22.223Z,33.97
2022-09-23T09:13:22.208Z,34.46
2022-09-23T09:14:22.209Z,34.84
2022-09-23T09:15:24.625Z,32.85
2022-09-23T09:16:41.798Z,33.00
2022-09-23T09:17:24.184Z,34.89
2022-09-23T09:18:22.172Z,35.19
2022-09-23T09:19:22.179Z,34.58
2022-09-23T09:20:22.160Z,34.36
2022-09-23T09:21:22.189Z,34.74
2022-09-23T09:22:22.156Z,33.94
2022-09-23T09:23:22.144Z,33.94
2022-09-23T09:24:22.155Z,34.00
2022-09-23T09:25:22.160Z,33.00
2022-09-23T09:26:22.139Z,31.59
2022-09-23T09:27:22.124Z,30.60
2022-09-23T09:28:22.112Z,30.21
2022-09-23T09:29:35.083Z,31.18
2022-09-23T09:30:24.135Z,31.48
2022-09-23T09:31:22.905Z,30.90
2022-09-23T09:32:22.104Z,32.39
2022-09-23T09:33:22.083Z,31.23
2022-09-23T09:34:22.091Z,31.39
2022-09-23T09:35:22.079Z,31.38
2022-09-23T09:36:22.065Z,31.97
2022-09-23T09:37:22.092Z,30.60
2022-09-23T09:38:22.113Z,30.72
2022-09-23T09:39:26.067Z,31.19
2022-09-23T09:40:23.107Z,32.59
2022-09-23T09:41:22.043Z,32.77
2022-09-23T09:42:22.056Z,33.97
2022-09-23T09:43:22.044Z,32.78
2022-09-23T09:44:22.023Z,32.49
2022-09-23T09:45:22.020Z,32.87
2022-09-23T09:46:22.054Z,33.06
2022-09-23T09:47:22.012Z,31.63
2022-09-23T09:48:22.015Z,31.04
2022-09-23T09:49:22.020Z,31.98
2022-09-23T09:50:22.001Z,31.79
2022-09-23T09:51:21.992Z,33.04
2022-09-23T09:52:21.982Z,33.80
2022-09-23T09:53:21.933Z,34.10
2022-09-23T09:54:21.916Z,32.49
2022-09-23T09:55:21.926Z,32.70
2022-09-23T09:56:21.901Z,30.91
2022-09-23T09:57:21.896Z,31.48
2022-09-23T09:58:21.892Z,31.07
2022-09-23T09:59:22.686Z,31.68
2022-09-23T10:00:21.895Z,31.57
2022-09-23T10:01:21.926Z,30.76
2022-09-23T10:02:21.857Z,30.62
2022-09-23T10:03:21.858Z,30.26
2022-09-23T10:04:21.917Z,31.20
2022-09-23T10:05:21.862Z,33.14
2022-09-23T10:06:21.841Z,34.88
2022-09-23T10:07:21.841Z,34.27
2022-09-23T10:08:21.837Z,34.53
2022-09-23T10:09:21.833Z,33.14
2022-09-23T10:10:32.500Z,32.95
2022-09-23T10:11:23.823Z,32.83
2022-09-23T10:12:21.808Z,32.90
2022-09-23T10:13:21.814Z,32.35
2022-09-23T10:14:21.803Z,31.52
2022-09-23T10:15:21.791Z,31.32
2022-09-23T10:16:21.849Z,31.14
2022-09-23T10:17:21.778Z,31.93
2022-09-23T10:18:21.781Z,29.55
2022-09-23T10:19:21.782Z,29.94
2022-09-23T10:20:21.756Z,29.57
2022-09-23T10:21:26.909Z,30.94
2022-09-23T10:22:22.752Z,30.65
2022-09-23T10:23:21.767Z,29.63
2022-09-23T10:24:21.782Z,28.92
2022-09-23T10:25:21.737Z,28.91
2022-09-23T10:26:21.770Z,29.20
2022-09-23T10:27:21.728Z,27.94
2022-09-23T10:28:21.722Z,30.27
2022-09-23T10:29:21.725Z,31.85
2022-09-23T10:30:21.774Z,33.07
2022-09-23T10:31:21.776Z,32.86
2022-09-23T10:32:21.743Z,32.25
2022-09-23T10:33:21.701Z,31.25
2022-09-23T10:34:21.713Z,32.86
2022-09-23T10:35:21.696Z,33.26
2022-09-23T10:36:21.671Z,32.04
2022-09-23T10:37:21.670Z,31.73
2022-09-23T10:38:21.704Z,31.04
2022-09-23T10:39:21.673Z,31.81
2022-09-23T10:40:21.701Z,30.69
2022-09-23T10:41:21.650Z,31.12
2022-09-23T10:42:21.640Z,32.56
2022-09-23T10:43:21.666Z,34.18
2022-09-23T10:44:21.643Z,32.89
2022-09-23T10:45:21.634Z,33.49
2022-09-23T10:46:21.692Z,34.01
2022-09-23T10:47:21.636Z,35.04
2022-09-23T10:48:21.631Z,36.66
2022-09-23T10:49:21.632Z,36.88
2022-09-23T10:50:21.601Z,37.16
2022-09-23T10:51:25.505Z,36.23
2022-09-23T10:52:22.602Z,36.53
2022-09-23T10:53:21.598Z,35.41
2022-09-23T10:54:21.604Z,33.92
2022-09-23T10:55:21.592Z,34.43
2022-09-23T10:56:21.581Z,35.69
2022-09-23T10:57:21.572Z,37.02
2022-09-23T10:58:21.565Z,36.50
2022-09-23T10:59:21.582Z,36.49
2022-09-23T11:00:21.584Z,37.25
2022-09-23T11:01:21.572Z,38.27
2022-09-23T11:02:21.559Z,38.20
2022-09-23T11:03:21.550Z,37.59
2022-09-23T11:04:21.597Z,37.35
2022-09-23T11:05:21.553Z,35.03
2022-09-23T11:06:21.576Z,35.50
2022-09-23T11:07:21.532Z,36.47
2022-09-23T11:08:21.553Z,34.66
2022-09-23T11:09:21.517Z,34.38
2022-09-23T11:10:35.322Z,34.56
2022-09-23T11:11:23.502Z,34.59
2022-09-23T11:12:21.509Z,36.42
2022-09-23T11:13:21.491Z,36.64
2022-09-23T11:14:21.484Z,36.44
2022-09-23T11:15:21.483Z,37.92
2022-09-23T11:16:21.513Z,36.38
2022-09-23T11:17:22.464Z,35.79
2022-09-23T11:18:21.456Z,36.63
2022-09-23T11:19:21.458Z,34.71
2022-09-23T11:20:21.457Z,34.59
2022-09-23T11:21:21.477Z,34.52
2022-09-23T11:22:21.435Z,34.41
2022-09-23T11:23:21.447Z,34.34
2022-09-23T11:24:21.452Z,34.61
2022-09-23T11:25:21.435Z,34.10
2022-09-23T11:26:21.443Z,34.23
2022-09-23T11:27:21.415Z,34.83
2022-09-23T11:28:21.407Z,33.73
2022-09-23T11:29:21.409Z,33.04
2022-09-23T11:30:21.418Z,34.03
2022-09-23T11:31:21.475Z,35.55
2022-09-23T11:32:21.385Z,36.05
2022-09-23T11:33:21.390Z,35.03
2022-09-23T11:34:21.661Z,33.83
2022-09-23T11:35:21.366Z,35.01
2022-09-23T11:36:21.371Z,34.00
2022-09-23T11:37:21.373Z,33.31
2022-09-23T11:38:21.351Z,34.58
2022-09-23T11:39:21.358Z,32.60
2022-09-23T11:40:21.398Z,32.79
2022-09-23T11:41:21.335Z,34.40
2022-09-23T11:42:21.890Z,35.01
2022-09-23T11:43:21.340Z,34.23
2022-09-23T11:44:21.314Z,34.56
2022-09-23T11:45:21.312Z,35.57
2022-09-23T11:46:21.342Z,36.19
2022-09-23T11:47:21.300Z,36.52
2022-09-23T11:48:21.292Z,37.23
2022-09-23T11:49:21.280Z,37.85
2022-09-23T11:50:21.279Z,37.68
2022-09-23T11:51:21.273Z,39.89
2022-09-23T11:52:21.276Z,40.59
2022-09-23T11:53:21.260Z,42.33
2022-09-23T11:54:21.347Z,42.11
2022-09-23T11:55:23.176Z,42.91
2022-09-23T11:56:31.604Z,42.82
2022-09-23T11:57:23.260Z,42.82
2022-09-23T11:58:25.542Z,42.21
2022-09-23T11:59:33.894Z,41.99
2022-09-23T12:00:23.219Z,42.10
2022-09-23T12:01:32.129Z,42.57
2022-09-23T12:02:28.193Z,42.35
2022-09-23T12:03:25.348Z,41.97
2022-09-23T12:04:22.721Z,41.58
2022-09-23T12:05:21.350Z,42.15
2022-09-23T12:06:21.172Z,40.52
2022-09-23T12:07:21.179Z,41.83
2022-09-23T12:08:21.165Z,42.25
2022-09-23T12:09:35.795Z,40.53
2022-09-23T12:10:23.152Z,38.80
2022-09-23T12:11:21.149Z,39.54
2022-09-23T12:12:26.349Z,38.11
2022-09-23T12:13:23.130Z,37.20
2022-09-23T12:14:21.278Z,37.20
2022-09-23T12:15:21.127Z,37.30
2022-09-23T12:16:21.181Z,36.60
2022-09-23T12:17:21.109Z,37.85
2022-09-23T12:18:23.330Z,39.68
2022-09-23T12:19:22.114Z,40.52
2022-09-23T12:20:21.124Z,40.47
2022-09-23T12:21:45.858Z,40.37
2022-09-23T12:22:23.088Z,41.88
2022-09-23T12:23:21.077Z,40.25
2022-09-23T12:24:21.072Z,39.34
2022-09-23T12:25:21.079Z,40.12
2022-09-23T12:26:21.099Z,40.10
2022-09-23T12:27:21.058Z,39.88
2022-09-23T12:28:21.046Z,39.90
2022-09-23T12:29:21.103Z,40.16
2022-09-23T12:30:21.104Z,41.09
2022-09-23T12:31:21.048Z,40.19
2022-09-23T12:32:21.024Z,40.50
2022-09-23T12:33:21.069Z,41.02
2022-09-23T12:34:21.012Z,42.91
2022-09-23T12:35:21.011Z,43.63
2022-09-23T12:36:21.001Z,45.08
2022-09-23T12:37:21.004Z,43.46
2022-09-23T12:38:20.976Z,44.98
2022-09-23T12:39:21.047Z,44.28
2022-09-23T12:40:20.984Z,44.98
2022-09-23T12:41:20.967Z,44.90
2022-09-23T12:42:20.974Z,43.85
2022-09-23T12:43:20.954Z,43.66
2022-09-23T12:44:20.936Z,42.61
2022-09-23T12:45:20.940Z,41.89
2022-09-23T12:46:20.962Z,41.77
2022-09-23T12:47:20.940Z,40.66
2022-09-23T12:48:20.912Z,42.35
2022-09-23T12:49:20.919Z,41.67
2022-09-23T12:50:23.815Z,41.67
2022-09-23T12:51:20.896Z,40.56
2022-09-23T12:52:20.909Z,39.76